Bayberry, New York
Current Conditions -  °F | °C
As of 4:54 AM on Friday 24 Oct 2014 (Local Time) from KSYR Reporting Station
Light Rain Light Rain  
Wind Chill:   Ceiling: 5500
Heat Index:   Visibility: 10mi
Dew Point:   Wind: 6mph
Humidity: 83%   Direction: 290°WNW
Pressure: 29.95"   Gusts: NA
Location:  43.1489°N, 76.2142°W
Report Text: KSYR 240854Z 29005KT 10SM -RA FEW019 BKN055 OVC065 09/07 A2995 RMK AO2 RAB09 SLP141 P0000 60000 T00940067 53006
Loading
Personal Weather Stations






























Interactive Weather Map
Tropical Storm Tracking
New forecast layout! Learn more

10-Day Weather Forecast

Advertisements
Track Severe Weather on mobile